Time;durP1;ratioP1;P1;durP2;ratioP2;P2;SDS_P1;SDS_P2;PMS_P1;PMS_P2;Temp;Humidity;BMP_temperature;BMP_pressure;BME280_temperature;BME280_humidity;BME280_pressure;Samples;Min_cycle;Max_cycle;Signal;HPM_P1;HPM_P2
2022/05/17 00:01:31;;;;;;;8.20;2.80;;;16.30;99.90;;;;;;5030770;28;20059;-79
2022/05/17 00:03:57;;;;;;;8.50;2.97;;;16.30;99.90;;;;;;5034284;28;20113;-80
2022/05/17 00:06:23;;;;;;;4.68;2.83;;;16.20;99.90;;;;;;5036522;28;20064;-80
2022/05/17 00:08:49;;;;;;;4.50;2.55;;;16.30;99.90;;;;;;5034179;28;20469;-80
2022/05/17 00:11:15;;;;;;;8.70;3.67;;;16.20;99.90;;;;;;5035507;28;20037;-81
2022/05/17 00:13:41;;;;;;;7.88;2.80;;;16.20;99.90;;;;;;5038006;28;20021;-80
2022/05/17 00:16:07;;;;;;;8.63;3.33;;;16.20;99.90;;;;;;5035729;28;20030;-80
2022/05/17 00:18:33;;;;;;;6.72;3.25;;;16.20;99.90;;;;;;5036348;28;20441;-81
2022/05/17 00:20:59;;;;;;;5.50;2.65;;;16.20;99.90;;;;;;5034975;28;20033;-80
2022/05/17 00:23:25;;;;;;;5.07;2.92;;;16.20;99.90;;;;;;5034026;28;20021;-80
2022/05/17 00:25:51;;;;;;;5.10;3.13;;;16.20;99.90;;;;;;5034273;28;20053;-80
2022/05/17 00:28:19;;;;;;;5.45;2.67;;;16.20;99.90;;;;;;5034559;28;20026;-80
2022/05/17 00:30:46;;;;;;;5.78;2.78;;;16.20;99.90;;;;;;5034101;28;20045;-80
2022/05/17 00:33:12;;;;;;;7.63;3.30;;;16.20;99.90;;;;;;5034513;28;20040;-80
2022/05/17 00:35:38;;;;;;;7.32;3.30;;;16.20;99.90;;;;;;5034519;28;20029;-80
2022/05/17 00:38:04;;;;;;;5.22;2.70;;;16.10;99.90;;;;;;5034682;28;20036;-80
2022/05/17 00:40:30;;;;;;;4.90;2.85;;;16.10;99.90;;;;;;5034946;28;20029;-79
2022/05/17 00:42:55;;;;;;;11.27;3.47;;;16.20;99.90;;;;;;5034526;28;20029;-80
2022/05/17 00:45:21;;;;;;;9.18;3.00;;;16.20;99.90;;;;;;5034139;28;20071;-81
2022/05/17 00:48:04;;;;;;;5.88;2.55;;;16.20;99.90;;;;;;5035342;28;20034;-79
2022/05/17 00:50:40;;;;;;;4.43;2.65;;;16.20;99.90;;;;;;5034063;28;20017;-80
2022/05/17 00:53:10;;;;;;;8.88;4.03;;;16.20;99.90;;;;;;5035750;28;20040;-80
2022/05/17 00:55:39;;;;;;;8.47;2.70;;;16.20;99.90;;;;;;5034931;28;20034;-81
2022/05/17 00:58:10;;;;;;;6.07;3.00;;;16.20;99.90;;;;;;5033280;28;20042;-80
2022/05/17 01:00:54;;;;;;;7.28;3.15;;;16.20;99.90;;;;;;5035189;28;20065;-80
2022/05/17 01:03:21;;;;;;;5.05;3.03;;;16.20;99.90;;;;;;5034649;28;20527;-80
2022/05/17 01:05:52;;;;;;;4.40;3.03;;;16.20;99.90;;;;;;5032975;28;20033;-81
2022/05/17 01:08:18;;;;;;;9.32;3.08;;;16.20;99.90;;;;;;5034161;28;20025;-80
2022/05/17 01:10:44;;;;;;;6.15;2.88;;;16.10;99.90;;;;;;5034023;28;20040;-79
2022/05/17 01:15:54;;;;;;;3.63;3.13;;;16.10;99.90;;;;;;5032403;28;20031;-80
2022/05/17 01:18:20;;;;;;;4.70;3.10;;;16.10;99.90;;;;;;5033874;28;20109;-80
2022/05/17 01:20:47;;;;;;;9.88;3.53;;;16.10;99.90;;;;;;5033076;28;20029;-80
2022/05/17 01:23:13;;;;;;;7.93;2.85;;;16.00;99.90;;;;;;5033712;28;20033;-80
2022/05/17 01:25:40;;;;;;;5.32;3.05;;;16.00;99.90;;;;;;5033012;28;20493;-80
2022/05/17 01:28:22;;;;;;;4.95;3.47;;;15.90;99.90;;;;;;5033130;28;20104;-81
2022/05/17 01:30:48;;;;;;;7.72;3.90;;;15.90;99.90;;;;;;5033057;28;20128;-81
2022/05/17 01:33:15;;;;;;;5.93;3.17;;;15.80;99.90;;;;;;5032949;28;20108;-80
2022/05/17 01:35:41;;;;;;;6.35;2.92;;;15.80;99.90;;;;;;5033509;28;20053;-81
2022/05/17 01:38:07;;;;;;;5.15;3.45;;;15.80;99.90;;;;;;5033200;28;20061;-80
2022/05/17 01:40:32;;;;;;;9.23;3.65;;;15.80;99.90;;;;;;5032744;28;20101;-80
2022/05/17 01:42:58;;;;;;;8.20;3.38;;;15.70;99.90;;;;;;5034006;28;20466;-79
2022/05/17 01:45:23;;;;;;;6.53;3.80;;;15.70;99.90;;;;;;5034453;28;20464;-80
2022/05/17 01:47:49;;;;;;;13.00;3.88;;;15.70;99.90;;;;;;5032273;28;20516;-79
2022/05/17 01:50:15;;;;;;;10.50;3.55;;;15.60;99.90;;;;;;5033028;28;20021;-79
2022/05/17 01:52:40;;;;;;;8.00;4.38;;;15.60;99.90;;;;;;5032797;28;20103;-80
2022/05/17 01:55:07;;;;;;;5.15;3.40;;;15.60;99.90;;;;;;5031968;28;20056;-80
2022/05/17 01:57:32;;;;;;;8.60;3.70;;;15.60;99.90;;;;;;5032886;28;20029;-81
2022/05/17 01:59:58;;;;;;;4.45;2.92;;;15.60;99.90;;;;;;5032553;28;20021;-79
2022/05/17 02:02:23;;;;;;;6.07;3.58;;;15.60;99.90;;;;;;5032465;28;20037;-80
2022/05/17 02:04:49;;;;;;;9.52;4.05;;;15.50;99.90;;;;;;5032525;28;20414;-79
2022/05/17 02:07:14;;;;;;;6.55;3.67;;;15.50;99.90;;;;;;5032681;28;20025;-79
2022/05/17 02:09:40;;;;;;;6.88;3.20;;;15.50;99.90;;;;;;5031918;28;20216;-79
2022/05/17 02:12:06;;;;;;;8.57;3.70;;;15.50;99.90;;;;;;5032137;28;20494;-80
2022/05/17 02:14:32;;;;;;;4.65;3.80;;;15.40;99.90;;;;;;5032631;28;20033;-79
2022/05/17 02:17:01;;;;;;;6.40;3.67;;;15.40;99.90;;;;;;5031681;28;20029;-79
2022/05/17 02:19:29;;;;;;;6.97;3.72;;;15.40;99.90;;;;;;5032566;28;20033;-81
2022/05/17 02:21:55;;;;;;;9.52;4.40;;;15.40;99.90;;;;;;5031474;28;20029;-80
2022/05/17 02:24:22;;;;;;;7.88;4.57;;;15.40;99.90;;;;;;5032364;28;20021;-79
2022/05/17 02:26:48;;;;;;;5.97;3.65;;;15.30;99.90;;;;;;5032024;28;20029;-81
2022/05/17 02:29:14;;;;;;;5.57;3.58;;;15.30;99.90;;;;;;5031971;28;20443;-79
2022/05/17 02:31:39;;;;;;;6.35;3.70;;;15.40;99.90;;;;;;5032284;28;20057;-81
2022/05/17 02:34:05;;;;;;;5.32;4.15;;;15.40;99.90;;;;;;5025843;28;20038;-80
2022/05/17 02:36:30;;;;;;;6.95;4.22;;;15.40;99.90;;;;;;5031164;28;20380;-80
2022/05/17 02:38:56;;;;;;;5.82;3.67;;;15.40;99.90;;;;;;5031873;28;20037;-79
2022/05/17 02:41:23;;;;;;;7.03;3.90;;;15.40;99.90;;;;;;5032202;28;20025;-80
2022/05/17 02:43:50;;;;;;;6.47;3.70;;;15.30;99.90;;;;;;5033106;28;20084;-79
2022/05/17 02:46:16;;;;;;;6.97;3.60;;;15.30;99.90;;;;;;5034762;28;20034;-78
2022/05/17 02:48:42;;;;;;;6.68;3.85;;;15.30;99.90;;;;;;5032552;28;20041;-79
2022/05/17 02:51:13;;;;;;;5.93;4.32;;;15.30;99.90;;;;;;5031722;28;20037;-80
2022/05/17 02:53:39;;;;;;;10.57;4.43;;;15.30;99.90;;;;;;5033097;28;20100;-80
2022/05/17 02:56:06;;;;;;;7.90;4.18;;;16.00;99.90;;;;;;5033132;28;20489;-80
2022/05/17 02:58:31;;;;;;;6.85;4.03;;;15.30;99.90;;;;;;5034023;28;20527;-81
2022/05/17 03:00:57;;;;;;;7.50;4.13;;;15.30;99.90;;;;;;5032645;28;20038;-80
2022/05/17 03:03:22;;;;;;;6.30;4.55;;;15.40;99.90;;;;;;5032391;28;20512;-80
2022/05/17 03:05:48;;;;;;;5.18;3.90;;;15.40;99.90;;;;;;5031185;28;20022;-81
2022/05/17 03:08:13;;;;;;;5.93;3.83;;;15.40;99.90;;;;;;5031950;28;20082;-80
2022/05/17 03:10:39;;;;;;;11.15;4.72;;;15.50;99.90;;;;;;5031922;28;20079;-80
2022/05/17 03:13:05;;;;;;;6.13;4.30;;;15.50;99.90;;;;;;5031109;28;20044;-80
2022/05/17 03:15:30;;;;;;;6.57;4.15;;;15.50;99.90;;;;;;5032008;28;20029;-80
2022/05/17 03:17:56;;;;;;;4.97;4.05;;;15.50;99.90;;;;;;5033151;28;20041;-79
2022/05/17 03:20:21;;;;;;;8.45;3.80;;;15.50;99.90;;;;;;5031286;28;20022;-80
2022/05/17 03:22:47;;;;;;;6.68;3.75;;;15.60;99.90;;;;;;5031820;28;20133;-80
2022/05/17 03:25:12;;;;;;;9.07;3.95;;;15.50;99.90;;;;;;5031231;28;20385;-80
2022/05/17 03:27:38;;;;;;;10.70;3.90;;;15.50;99.90;;;;;;5031905;28;20075;-80
2022/05/17 03:30:05;;;;;;;4.85;3.63;;;15.50;99.90;;;;;;5031652;28;20029;-80
2022/05/17 03:32:31;;;;;;;7.32;3.88;;;15.50;99.90;;;;;;5031081;28;20075;-80
2022/05/17 03:34:56;;;;;;;8.40;3.88;;;15.50;99.90;;;;;;5031446;28;20057;-80
2022/05/17 03:37:22;;;;;;;5.25;3.67;;;15.50;99.90;;;;;;5031794;28;20029;-80
2022/05/17 03:39:48;;;;;;;6.75;4.10;;;15.50;99.90;;;;;;5033005;28;20075;-79
2022/05/17 03:42:13;;;;;;;8.27;3.90;;;15.50;99.90;;;;;;5035257;28;20478;-79
2022/05/17 03:44:39;;;;;;;4.60;3.75;;;16.00;99.90;;;;;;5036939;28;20017;-81
2022/05/17 03:47:06;;;;;;;6.53;4.60;;;15.40;99.90;;;;;;5038053;28;20033;-82
2022/05/17 03:49:32;;;;;;;5.47;4.00;;;15.40;99.90;;;;;;5038338;28;20026;-80
2022/05/17 03:51:57;;;;;;;6.20;4.20;;;15.40;99.90;;;;;;5037056;28;20060;-80
2022/05/17 03:54:24;;;;;;;8.82;4.30;;;15.50;99.90;;;;;;5035745;28;20029;-81
2022/05/17 03:56:49;;;;;;;5.38;4.55;;;15.50;99.90;;;;;;5034928;28;20036;-80
2022/05/17 03:59:15;;;;;;;8.40;5.13;;;15.50;99.90;;;;;;5035187;28;20025;-80
2022/05/17 04:01:40;;;;;;;8.27;5.13;;;15.60;99.90;;;;;;5034348;28;20045;-80
2022/05/17 04:04:06;;;;;;;9.88;4.93;;;15.60;99.90;;;;;;5034740;28;20025;-80
2022/05/17 04:06:31;;;;;;;5.60;4.38;;;15.70;99.90;;;;;;5034861;28;20438;-81
2022/05/17 04:08:57;;;;;;;11.35;4.43;;;15.70;99.90;;;;;;5033710;28;20028;-81
2022/05/17 04:11:23;;;;;;;8.20;4.72;;;15.80;99.90;;;;;;5034935;28;20045;-79
2022/05/17 04:13:48;;;;;;;4.82;4.10;;;15.80;99.90;;;;;;5034821;28;20539;-81
2022/05/17 04:16:14;;;;;;;6.95;4.07;;;15.80;99.90;;;;;;5034249;28;20436;-81
2022/05/17 04:18:40;;;;;;;7.88;4.50;;;15.90;99.90;;;;;;5034610;28;20049;-79
2022/05/17 04:21:06;;;;;;;6.65;4.63;;;16.70;99.90;;;;;;5034311;28;20116;-82
2022/05/17 04:23:32;;;;;;;9.00;5.00;;;15.90;99.90;;;;;;5033893;28;20029;-81
2022/05/17 04:25:58;;;;;;;7.18;4.72;;;15.90;99.90;;;;;;5034413;28;20021;-79
2022/05/17 04:28:23;;;;;;;4.65;4.15;;;15.90;99.90;;;;;;5034660;28;20025;-80
2022/05/17 04:30:50;;;;;;;10.02;5.07;;;16.00;99.90;;;;;;5033230;28;20529;-79
2022/05/17 04:33:15;;;;;;;8.75;4.72;;;16.00;99.90;;;;;;5034364;28;20373;-80
2022/05/17 04:35:41;;;;;;;7.95;4.72;;;16.00;99.90;;;;;;5033557;28;20022;-80
2022/05/17 04:38:07;;;;;;;15.30;4.45;;;16.10;99.90;;;;;;5033927;28;20030;-81
2022/05/17 04:40:34;;;;;;;4.97;4.47;;;16.10;99.90;;;;;;5034226;28;20036;-81
2022/05/17 04:43:00;;;;;;;7.93;4.22;;;16.10;99.90;;;;;;5033368;28;20029;-79
2022/05/17 04:45:26;;;;;;;5.78;4.20;;;16.20;99.90;;;;;;5034163;28;20030;-79
2022/05/17 04:47:51;;;;;;;7.57;4.53;;;16.20;99.90;;;;;;5033868;28;20025;-80
2022/05/17 04:50:18;;;;;;;9.43;4.93;;;16.20;99.90;;;;;;5036261;28;20048;-79
2022/05/17 04:52:47;;;;;;;6.65;4.30;;;16.20;99.90;;;;;;5034668;28;20049;-80
2022/05/17 04:55:15;;;;;;;6.90;4.25;;;16.30;99.90;;;;;;5032064;28;20032;-79
2022/05/17 04:57:41;;;;;;;5.07;4.53;;;16.30;99.90;;;;;;5032146;28;20037;-79
2022/05/17 05:00:10;;;;;;;5.20;4.00;;;16.30;99.90;;;;;;5033882;28;20030;-79
2022/05/17 05:02:36;;;;;;;9.13;4.95;;;16.30;99.90;;;;;;5039595;28;20056;-80
2022/05/17 05:05:03;;;;;;;5.85;3.80;;;16.40;99.90;;;;;;5030468;28;20021;-81
2022/05/17 05:07:28;;;;;;;9.40;5.20;;;16.50;99.90;;;;;;5033227;28;20037;-79
2022/05/17 05:09:54;;;;;;;6.45;4.80;;;16.50;99.90;;;;;;5025198;28;20021;-79
2022/05/17 05:12:19;;;;;;;11.18;4.95;;;16.60;99.90;;;;;;5030605;28;20034;-80
2022/05/17 05:14:45;;;;;;;9.32;4.88;;;16.60;99.90;;;;;;5028801;28;20545;-81
2022/05/17 05:17:11;;;;;;;11.07;5.55;;;16.70;99.90;;;;;;5026734;28;20385;-79
2022/05/17 05:19:36;;;;;;;7.57;4.43;;;16.70;99.90;;;;;;5031356;28;20017;-80
2022/05/17 05:22:03;;;;;;;7.75;4.50;;;16.70;99.90;;;;;;5032038;28;20116;-79
2022/05/17 05:24:29;;;;;;;11.77;4.88;;;16.80;99.90;;;;;;5032419;28;20069;-80
2022/05/17 05:26:56;;;;;;;10.15;4.63;;;16.80;99.90;;;;;;5030911;28;20117;-80
2022/05/17 05:29:22;;;;;;;9.27;4.32;;;16.90;99.90;;;;;;5029744;28;20018;-79
2022/05/17 05:31:47;;;;;;;5.72;4.60;;;16.90;99.90;;;;;;5030782;28;20508;-79
2022/05/17 05:34:13;;;;;;;9.30;4.57;;;16.80;99.90;;;;;;5031621;28;20029;-79
2022/05/17 05:36:39;;;;;;;5.57;4.15;;;16.80;99.90;;;;;;5031832;28;20048;-79
2022/05/17 05:39:04;;;;;;;8.75;4.13;;;16.80;99.90;;;;;;5030831;28;20378;-79
2022/05/17 05:41:30;;;;;;;5.35;4.00;;;16.80;99.90;;;;;;5031844;28;20063;-80
2022/05/17 05:43:55;;;;;;;13.05;4.45;;;16.80;99.90;;;;;;5031415;28;20056;-78
2022/05/17 05:46:21;;;;;;;11.15;4.70;;;16.80;99.90;;;;;;5031018;28;20028;-79
2022/05/17 05:48:47;;;;;;;9.25;4.28;;;16.90;99.90;;;;;;5032207;28;20029;-79
2022/05/17 05:51:12;;;;;;;8.30;4.07;;;16.90;99.90;;;;;;5026478;28;20049;-80
2022/05/17 05:53:38;;;;;;;8.05;4.55;;;16.90;99.90;;;;;;5031536;28;20033;-79
2022/05/17 05:56:05;;;;;;;9.07;4.35;;;17.00;99.90;;;;;;5026596;28;20013;-80
2022/05/17 05:58:37;;;;;;;7.97;4.75;;;17.00;99.90;;;;;;5032333;28;20375;-79
2022/05/17 06:01:03;;;;;;;6.30;3.92;;;17.10;99.90;;;;;;5030457;28;20081;-81
2022/05/17 06:03:29;;;;;;;6.20;3.80;;;17.20;99.90;;;;;;5031836;28;20032;-79
2022/05/17 06:05:55;;;;;;;8.13;4.28;;;17.20;99.90;;;;;;5031873;28;20029;-80
2022/05/17 06:08:21;;;;;;;7.32;3.75;;;17.30;99.90;;;;;;5031276;28;20393;-80
2022/05/17 06:10:47;;;;;;;9.95;3.83;;;17.30;99.90;;;;;;5031800;28;20021;-80
2022/05/17 06:13:15;;;;;;;4.97;3.20;;;17.30;99.90;;;;;;5031917;28;20044;-80
2022/05/17 06:15:42;;;;;;;3.92;3.08;;;17.20;99.90;;;;;;5031271;28;20032;-80
2022/05/17 06:18:09;;;;;;;3.45;2.90;;;17.20;99.90;;;;;;5031626;28;20035;-81
2022/05/17 06:20:36;;;;;;;9.30;4.18;;;17.20;99.90;;;;;;5023470;28;20060;-79
2022/05/17 06:23:02;;;;;;;7.97;3.58;;;17.20;99.90;;;;;;5036125;28;20164;-80
2022/05/17 06:25:28;;;;;;;8.93;3.35;;;17.30;99.90;;;;;;5029171;28;20029;-80
2022/05/17 06:27:54;;;;;;;6.35;3.13;;;17.40;99.90;;;;;;5031583;28;20462;-80
2022/05/17 06:30:20;;;;;;;7.50;3.60;;;17.40;99.90;;;;;;5028438;28;20021;-81
2022/05/17 06:32:46;;;;;;;5.70;3.58;;;17.50;99.90;;;;;;5023716;28;20543;-80
2022/05/17 06:35:12;;;;;;;7.43;3.25;;;17.40;99.90;;;;;;5031253;28;20026;-76
2022/05/17 06:37:37;;;;;;;4.90;3.08;;;17.40;99.90;;;;;;5026423;28;20026;-76
2022/05/17 06:40:07;;;;;;;9.95;3.38;;;17.40;99.90;;;;;;5029196;28;20051;-76
2022/05/17 06:42:33;;;;;;;4.70;3.00;;;17.40;99.90;;;;;;5029946;28;20493;-78
2022/05/17 06:44:59;;;;;;;8.77;3.08;;;17.50;99.90;;;;;;5030238;28;20018;-78
2022/05/17 06:47:26;;;;;;;10.30;3.25;;;17.50;99.90;;;;;;5031330;28;20104;-77
2022/05/17 06:49:52;;;;;;;6.40;3.22;;;17.50;99.90;;;;;;5025101;28;20021;-77
2022/05/17 06:52:20;;;;;;;9.40;3.28;;;17.50;99.90;;;;;;5031479;28;20061;-77
2022/05/17 06:54:45;;;;;;;8.88;3.17;;;17.50;99.90;;;;;;5031701;28;20037;-76
2022/05/17 06:57:13;;;;;;;10.20;3.33;;;17.40;99.90;;;;;;5030425;28;20083;-78
2022/05/17 06:59:40;;;;;;;6.93;3.08;;;17.50;99.90;;;;;;5031356;28;20033;-78
2022/05/17 07:02:07;;;;;;;7.32;3.15;;;17.50;99.90;;;;;;5030866;28;20132;-76
2022/05/17 07:04:33;;;;;;;9.77;3.33;;;17.50;99.90;;;;;;5031234;28;20026;-77
2022/05/17 07:07:00;;;;;;;7.68;3.47;;;17.50;99.90;;;;;;5031775;28;20500;-77
2022/05/17 07:09:27;;;;;;;6.40;2.35;;;17.50;99.90;;;;;;5032074;28;20021;-77
2022/05/17 07:14:37;;;;;;;6.65;2.97;;;17.70;99.90;;;;;;5032865;28;20032;-77
2022/05/17 07:17:25;;;;;;;6.50;2.38;;;17.90;99.90;;;;;;5035942;28;20100;-77
2022/05/17 07:19:51;;;;;;;6.18;2.95;;;18.10;99.90;;;;;;5035672;28;20079;-77
2022/05/17 07:22:16;;;;;;;6.03;2.40;;;18.20;99.90;;;;;;5035935;28;20025;-76
2022/05/17 07:24:45;;;;;;;4.45;2.50;;;18.40;99.90;;;;;;5035113;28;20159;-77
2022/05/17 07:27:12;;;;;;;8.10;2.80;;;18.50;99.90;;;;;;5035593;28;20478;-78
2022/05/17 07:29:37;;;;;;;6.63;2.45;;;18.70;99.90;;;;;;5035424;28;20116;-78
2022/05/17 07:32:04;;;;;;;3.03;2.53;;;18.80;99.90;;;;;;5033920;28;20072;-78
2022/05/17 07:34:29;;;;;;;4.72;2.78;;;19.10;99.90;;;;;;5034299;28;20018;-77
2022/05/17 07:36:55;;;;;;;6.50;2.55;;;19.20;99.90;;;;;;5031611;28;20428;-77
2022/05/17 07:39:21;;;;;;;5.60;2.70;;;19.40;99.90;;;;;;5035122;28;20021;-77
2022/05/17 07:41:47;;;;;;;8.65;2.55;;;19.40;99.90;;;;;;5034540;28;20038;-80
2022/05/17 07:44:13;;;;;;;7.13;2.33;;;19.60;99.90;;;;;;5035889;28;20026;-81
2022/05/17 07:46:38;;;;;;;5.50;1.95;;;19.60;99.90;;;;;;5035550;28;20032;-80
2022/05/17 07:49:06;;;;;;;4.72;1.98;;;19.70;99.90;;;;;;5035428;28;20021;-81
2022/05/17 07:51:32;;;;;;;6.32;2.55;;;19.50;99.90;;;;;;5035512;28;20033;-80
2022/05/17 07:53:58;;;;;;;6.72;2.40;;;19.50;99.90;;;;;;5040463;28;20363;-81
2022/05/17 07:56:23;;;;;;;5.63;2.20;;;19.40;99.90;;;;;;5041019;28;20067;-80
2022/05/17 07:58:49;;;;;;;3.92;1.60;;;19.80;99.90;;;;;;5031417;28;20148;-79
2022/05/17 08:01:15;;;;;;;3.47;1.50;;;19.10;99.90;;;;;;5004757;28;20065;-82
2022/05/17 08:03:41;;;;;;;3.47;1.60;;;19.10;99.90;;;;;;5005722;28;20030;-80
2022/05/17 08:06:06;;;;;;;6.82;2.08;;;19.10;99.90;;;;;;5009807;28;20023;-79
2022/05/17 08:08:32;;;;;;;8.07;2.80;;;19.10;99.90;;;;;;4993671;28;20447;-80
2022/05/17 08:10:58;;;;;;;8.15;2.67;;;19.10;99.90;;;;;;5009836;28;20033;-80
2022/05/17 08:13:25;;;;;;;6.03;2.30;;;19.00;99.90;;;;;;5002904;28;20120;-76
2022/05/17 08:15:51;;;;;;;6.30;2.30;;;19.00;99.90;;;;;;5002730;28;20050;-80
2022/05/17 08:18:18;;;;;;;2.67;1.85;;;19.10;99.90;;;;;;5008508;28;20053;-82
2022/05/17 08:20:44;;;;;;;2.75;1.73;;;19.20;99.90;;;;;;5006655;28;20105;-79
2022/05/17 08:23:10;;;;;;;7.38;2.00;;;19.40;99.90;;;;;;5008476;28;20018;-78
2022/05/17 08:28:20;;;;;;;6.10;2.53;;;19.60;99.90;;;;;;5000445;28;20034;-77
2022/05/17 08:30:47;;;;;;;4.93;2.10;;;19.70;99.90;;;;;;5009944;28;20037;-78
2022/05/17 08:33:15;;;;;;;6.82;2.42;;;19.80;99.90;;;;;;4994422;28;20038;-78
2022/05/17 08:35:52;;;;;;;6.15;2.28;;;19.90;99.90;;;;;;4993223;28;20030;-78
2022/05/17 08:38:30;;;;;;;6.00;2.70;;;20.10;99.90;;;;;;5001820;28;20113;-77
2022/05/17 08:41:19;;;;;;;5.43;2.33;;;20.20;99.90;;;;;;5012046;28;20143;-78
2022/05/17 08:43:51;;;;;;;6.97;2.00;;;20.40;99.90;;;;;;5010262;28;20030;-77
2022/05/17 08:46:41;;;;;;;5.63;2.10;;;20.60;99.90;;;;;;4999470;28;20430;-76
2022/05/17 08:49:27;;;;;;;4.90;2.42;;;20.60;99.90;;;;;;4997658;28;20051;-78
2022/05/17 08:52:09;;;;;;;5.35;2.55;;;20.70;99.90;;;;;;5003642;28;20128;-78
2022/05/17 08:54:36;;;;;;;4.53;2.42;;;20.90;99.90;;;;;;5009350;28;20053;-76
2022/05/17 08:57:30;;;;;;;6.47;3.20;;;21.00;99.90;;;;;;5011724;28;20498;-75
2022/05/17 09:00:00;;;;;;;7.15;3.63;;;21.20;99.90;;;;;;4997166;28;20034;-75
2022/05/17 09:02:51;;;;;;;5.47;3.97;;;21.30;99.90;;;;;;4996358;28;20132;-76
2022/05/17 09:05:33;;;;;;;6.82;3.10;;;21.40;99.90;;;;;;5005844;28;20122;-76
2022/05/17 09:08:09;;;;;;;6.22;3.13;;;21.40;99.90;;;;;;4999898;28;20030;-77
2022/05/17 09:10:39;;;;;;;8.95;2.63;;;21.40;99.90;;;;;;5007980;28;20018;-76
2022/05/17 09:13:20;;;;;;;6.23;3.20;;;21.40;99.90;;;;;;5010848;28;20116;-76
2022/05/17 09:15:45;;;;;;;6.80;3.30;;;21.50;99.90;;;;;;5010828;28;20482;-78
2022/05/17 09:18:16;;;;;;;8.40;3.97;;;21.50;99.90;;;;;;5006308;28;20113;-78
2022/05/17 09:20:42;;;;;;;5.68;3.22;;;21.50;99.90;;;;;;5003093;28;20093;-77
2022/05/17 09:23:08;;;;;;;5.90;3.80;;;21.50;99.90;;;;;;5001239;28;20536;-78
2022/05/17 09:25:58;;;;;;;8.10;3.65;;;21.60;99.90;;;;;;5009567;28;20030;-79
2022/05/17 09:28:27;;;;;;;11.52;4.25;;;21.60;99.90;;;;;;5007041;28;20048;-78
2022/05/17 09:31:12;;;;;;;4.63;2.70;;;21.60;99.90;;;;;;5004782;28;20125;-77
2022/05/17 09:33:39;;;;;;;6.82;3.08;;;21.70;99.90;;;;;;5010405;28;20042;-78
2022/05/17 09:36:05;;;;;;;7.13;4.13;;;21.70;99.90;;;;;;5006134;28;20018;-77
2022/05/17 09:38:33;;;;;;;9.80;4.43;;;21.80;99.90;;;;;;5007879;28;20084;-77
2022/05/17 09:40:59;;;;;;;6.82;3.90;;;21.80;99.90;;;;;;5005267;28;20014;-77
2022/05/17 09:43:43;;;;;;;6.60;4.00;;;21.90;99.90;;;;;;5011696;28;20030;-78
2022/05/17 09:46:15;;;;;;;6.00;4.35;;;21.80;99.90;;;;;;4994688;28;20027;-77
2022/05/17 09:54:46;;;;;;;10.25;4.57;;;21.90;99.90;;;;;;5008089;28;20928;-76
2022/05/17 09:57:30;;;;;;;5.97;4.15;;;22.00;99.90;;;;;;5089624;27;20489;-77
2022/05/17 10:00:08;;;;;;;5.32;4.18;;;22.20;99.90;;;;;;5089798;28;20089;-76
2022/05/17 10:02:49;;;;;;;8.40;4.93;;;22.30;99.90;;;;;;5088675;28;20097;-78
2022/05/17 10:05:17;;;;;;;8.20;4.45;;;22.40;99.90;;;;;;5088538;28;20073;-76
2022/05/17 10:07:50;;;;;;;5.78;4.70;;;22.40;99.90;;;;;;5092011;28;20029;-76
2022/05/17 10:10:31;;;;;;;10.10;5.32;;;22.40;99.90;;;;;;5092693;28;20024;-76
2022/05/17 10:13:11;;;;;;;6.70;4.90;;;22.30;99.90;;;;;;5092923;28;20036;-77
2022/05/17 10:15:41;;;;;;;5.53;4.60;;;22.10;99.90;;;;;;5089585;28;20039;-77
2022/05/17 10:18:20;;;;;;;5.80;4.47;;;22.00;99.90;;;;;;5086825;28;20115;-78
2022/05/17 10:20:49;;;;;;;11.33;5.90;;;21.90;99.90;;;;;;5086801;28;20099;-77
2022/05/17 10:23:29;;;;;;;10.50;5.07;;;21.80;99.90;;;;;;5093591;28;20016;-77
2022/05/17 10:26:10;;;;;;;7.73;5.27;;;21.80;99.90;;;;;;5091619;28;20089;-76
2022/05/17 10:28:45;;;;;;;6.35;3.97;;;22.00;99.90;;;;;;5091955;28;20046;-77
2022/05/17 10:31:19;;;;;;;7.80;5.20;;;22.20;99.90;;;;;;5104357;28;20029;-78
2022/05/17 10:34:22;;;;;;;5.65;4.60;;;22.40;99.90;;;;;;5095600;28;20020;-78
2022/05/17 10:36:54;;;;;;;6.82;4.45;;;22.60;99.90;;;;;;5092178;28;20120;-77
2022/05/17 10:39:35;;;;;;;10.13;5.90;;;22.90;99.90;;;;;;5100706;28;20384;-77
2022/05/17 10:42:01;;;;;;;10.52;4.63;;;23.00;99.90;;;;;;5103281;28;20058;-76
2022/05/17 10:44:39;;;;;;;6.38;4.70;;;23.10;99.90;;;;;;5099699;28;20348;-76
2022/05/17 10:47:20;;;;;;;7.00;4.47;;;23.30;99.90;;;;;;5096132;28;20024;-76
2022/05/17 10:49:49;;;;;;;7.90;4.97;;;23.40;99.90;;;;;;5097510;28;20081;-76
2022/05/17 10:52:52;;;;;;;7.18;4.95;;;23.60;99.90;;;;;;5086900;28;20613;-76
2022/05/17 10:55:36;;;;;;;8.05;4.88;;;23.70;99.90;;;;;;5074702;28;20143;-77
2022/05/17 10:58:43;;;;;;;17.73;6.00;;;23.60;99.90;;;;;;5106710;28;20111;-77
2022/05/17 11:01:39;;;;;;;8.00;4.72;;;23.50;99.90;;;;;;5078818;28;20377;-77
2022/05/17 11:04:32;;;;;;;7.95;4.90;;;23.40;99.90;;;;;;5108073;28;20348;-78
2022/05/17 11:07:09;;;;;;;9.82;5.18;;;23.30;99.90;;;;;;5104523;28;20548;-79
2022/05/17 11:10:00;;;;;;;9.52;4.93;;;23.20;99.90;;;;;;5092214;28;20044;-75
2022/05/17 11:12:34;;;;;;;11.80;4.78;;;23.20;99.90;;;;;;5082580;28;20056;-75
2022/05/17 11:15:10;;;;;;;15.38;5.10;;;23.30;99.90;;;;;;5088076;28;20062;-76
2022/05/17 11:17:44;;;;;;;5.85;4.65;;;23.40;99.90;;;;;;5094411;28;20031;-78
2022/05/17 11:20:42;;;;;;;7.60;4.68;;;23.50;99.90;;;;;;5094447;28;20051;-75
2022/05/17 11:23:26;;;;;;;7.35;4.65;;;23.60;99.90;;;;;;5072520;28;20607;-77
2022/05/17 11:25:57;;;;;;;8.60;4.55;;;23.60;99.90;;;;;;5094562;28;20073;-76
2022/05/17 11:28:55;;;;;;;9.43;4.85;;;23.80;99.90;;;;;;5094667;28;20028;-76
2022/05/17 11:31:41;;;;;;;10.60;5.07;;;23.80;99.90;;;;;;5036337;28;20050;-76
2022/05/17 11:34:22;;;;;;;12.25;5.05;;;23.90;99.90;;;;;;5074720;28;20097;-79
2022/05/17 11:36:50;;;;;;;15.23;6.40;;;23.80;99.90;;;;;;5082805;28;20178;-76
2022/05/17 11:39:36;;;;;;;8.88;4.78;;;23.90;99.90;;;;;;5093729;28;20380;-77
2022/05/17 11:42:10;;;;;;;8.48;5.43;;;23.80;99.90;;;;;;5093232;28;20539;-77
2022/05/17 11:44:45;;;;;;;7.93;5.00;;;23.80;99.30;;;;;;5093197;28;20488;-76
2022/05/17 11:47:33;;;;;;;8.50;4.68;;;23.80;99.60;;;;;;5093800;28;20068;-78
2022/05/17 11:50:20;;;;;;;8.70;6.00;;;23.80;99.60;;;;;;5093709;28;20035;-77
2022/05/17 11:52:48;;;;;;;10.82;4.18;;;23.90;99.70;;;;;;5092836;28;20081;-76
2022/05/17 11:55:21;;;;;;;7.70;4.72;;;24.00;99.60;;;;;;5092015;28;20052;-77
2022/05/17 11:57:47;;;;;;;6.93;4.90;;;24.00;99.40;;;;;;5083397;28;20032;-79
2022/05/17 12:00:26;;;;;;;9.40;5.00;;;24.30;99.00;;;;;;5090834;28;20027;-76
2022/05/17 12:02:56;;;;;;;7.68;4.25;;;24.10;98.90;;;;;;5090045;28;20068;-76
2022/05/17 12:05:47;;;;;;;8.73;4.50;;;24.30;99.20;;;;;;5091978;28;20111;-77
2022/05/17 12:08:46;;;;;;;8.15;5.10;;;24.30;98.60;;;;;;5090753;28;20059;-76
2022/05/17 12:11:14;;;;;;;6.47;4.60;;;24.40;98.60;;;;;;5092701;28;20057;-76
2022/05/17 12:13:59;;;;;;;7.93;5.15;;;24.40;98.10;;;;;;5092288;28;20432;-77
2022/05/17 12:16:29;;;;;;;5.40;4.25;;;24.40;98.50;;;;;;5089936;28;20119;-77
2022/05/17 12:19:04;;;;;;;8.65;4.50;;;24.60;98.50;;;;;;5088244;28;20031;-77
2022/05/17 12:21:48;;;;;;;7.50;3.90;;;24.70;98.60;;;;;;5090158;28;20475;-76
2022/05/17 12:24:26;;;;;;;10.18;5.15;;;24.90;98.30;;;;;;5092739;28;20036;-77
2022/05/17 12:27:07;;;;;;;8.30;5.18;;;25.10;97.60;;;;;;5090831;28;20032;-76
2022/05/17 12:32:26;;;;;;;8.20;3.90;;;25.10;97.30;;;;;;5093395;28;20031;-77
2022/05/17 12:34:53;;;;;;;7.90;4.60;;;25.10;97.10;;;;;;5092055;28;20110;-76
2022/05/17 12:37:26;;;;;;;5.90;3.92;;;25.20;97.00;;;;;;5092914;28;20080;-78
2022/05/17 12:45:27;;;;;;;;;;;25.10;97.00;;;;;;5091575;28;20043;-77
2022/05/17 12:47:56;;;;;;;5.43;3.78;;;25.00;97.10;;;;;;5091590;28;20461;-77
2022/05/17 12:50:38;;;;;;;7.28;4.70;;;25.00;97.20;;;;;;5092771;28;20031;-77
2022/05/17 12:53:21;;;;;;;5.10;3.83;;;25.00;96.70;;;;;;5090681;28;20049;-77
2022/05/17 12:56:07;;;;;;;7.18;3.95;;;25.10;96.60;;;;;;5091510;28;20400;-77
2022/05/17 12:58:46;;;;;;;6.85;3.63;;;25.50;96.80;;;;;;5092218;28;20036;-77
2022/05/17 13:01:13;;;;;;;8.85;3.78;;;25.80;96.30;;;;;;5091406;28;20024;-77
2022/05/17 13:03:43;;;;;;;5.03;3.85;;;26.00;95.60;;;;;;5089188;28;20467;-77
2022/05/17 13:06:09;;;;;;;7.07;3.90;;;26.00;95.60;;;;;;5091970;28;20103;-77
2022/05/17 13:08:38;;;;;;;5.43;3.80;;;26.20;95.50;;;;;;5092157;28;20432;-77
2022/05/17 13:11:24;;;;;;;8.63;3.65;;;26.40;94.80;;;;;;5091354;28;20077;-77
2022/05/17 13:13:58;;;;;;;12.95;4.00;;;26.40;94.60;;;;;;5091101;28;20031;-76
2022/05/17 13:16:40;;;;;;;5.57;2.90;;;26.70;94.80;;;;;;5089676;28;20109;-77
2022/05/17 13:19:11;;;;;;;7.30;3.42;;;26.80;94.40;;;;;;5090007;28;20480;-78
2022/05/17 13:21:51;;;;;;;6.82;3.20;;;26.90;94.00;;;;;;5092135;28;20464;-78
2022/05/17 13:24:38;;;;;;;5.82;3.22;;;27.00;93.80;;;;;;5091456;28;20096;-77